sensor_id;sensor_type;location;lat;lon;timestamp;P1;durP1;ratioP1;P2;durP2;ratioP2
49566;SDS011;35472;50.514;30.448;2022-10-16T00:03:22;5.47;;;3.83;;
49566;SDS011;35472;50.514;30.448;2022-10-16T00:05:47;9.52;;;4.68;;
49566;SDS011;35472;50.514;30.448;2022-10-16T00:08:13;7.80;;;4.68;;
49566;SDS011;35472;50.514;30.448;2022-10-16T00:10:39;7.60;;;4.40;;
49566;SDS011;35472;50.514;30.448;2022-10-16T00:13:05;8.68;;;4.25;;
49566;SDS011;35472;50.514;30.448;2022-10-16T00:15:35;8.23;;;4.43;;
49566;SDS011;35472;50.514;30.448;2022-10-16T00:18:01;5.72;;;3.88;;
49566;SDS011;35472;50.514;30.448;2022-10-16T00:20:28;9.55;;;4.72;;
49566;SDS011;35472;50.514;30.448;2022-10-16T00:22:53;8.48;;;4.63;;
49566;SDS011;35472;50.514;30.448;2022-10-16T00:25:18;7.60;;;4.22;;
49566;SDS011;35472;50.514;30.448;2022-10-16T00:27:44;11.95;;;4.28;;
49566;SDS011;35472;50.514;30.448;2022-10-16T00:30:09;6.88;;;4.03;;
49566;SDS011;35472;50.514;30.448;2022-10-16T00:32:35;6.60;;;5.03;;
49566;SDS011;35472;50.514;30.448;2022-10-16T00:35:00;7.65;;;4.82;;
49566;SDS011;35472;50.514;30.448;2022-10-16T00:37:26;9.05;;;4.88;;
49566;SDS011;35472;50.514;30.448;2022-10-16T00:39:51;6.95;;;4.15;;
49566;SDS011;35472;50.514;30.448;2022-10-16T00:42:17;7.30;;;4.03;;
49566;SDS011;35472;50.514;30.448;2022-10-16T00:44:50;6.82;;;5.30;;
49566;SDS011;35472;50.514;30.448;2022-10-16T00:47:51;19.45;;;4.68;;
49566;SDS011;35472;50.514;30.448;2022-10-16T00:50:18;7.15;;;4.00;;
49566;SDS011;35472;50.514;30.448;2022-10-16T00:52:49;5.50;;;4.22;;
49566;SDS011;35472;50.514;30.448;2022-10-16T00:55:17;7.72;;;4.63;;
49566;SDS011;35472;50.514;30.448;2022-10-16T00:57:44;7.88;;;4.72;;
49566;SDS011;35472;50.514;30.448;2022-10-16T01:00:12;5.95;;;3.72;;
49566;SDS011;35472;50.514;30.448;2022-10-16T01:02:41;7.00;;;3.92;;
49566;SDS011;35472;50.514;30.448;2022-10-16T01:05:06;13.43;;;5.93;;
49566;SDS011;35472;50.514;30.448;2022-10-16T01:10:35;8.57;;;4.25;;
49566;SDS011;35472;50.514;30.448;2022-10-16T01:13:04;9.25;;;4.78;;
49566;SDS011;35472;50.514;30.448;2022-10-16T01:15:34;8.05;;;4.07;;
49566;SDS011;35472;50.514;30.448;2022-10-16T01:18:08;10.43;;;5.18;;
49566;SDS011;35472;50.514;30.448;2022-10-16T01:20:54;9.95;;;5.10;;
49566;SDS011;35472;50.514;30.448;2022-10-16T01:28:57;10.73;;;4.68;;
49566;SDS011;35472;50.514;30.448;2022-10-16T01:31:32;7.30;;;4.65;;
49566;SDS011;35472;50.514;30.448;2022-10-16T01:34:19;7.38;;;3.92;;
49566;SDS011;35472;50.514;30.448;2022-10-16T01:36:55;9.13;;;4.78;;
49566;SDS011;35472;50.514;30.448;2022-10-16T01:39:28;6.05;;;4.07;;
49566;SDS011;35472;50.514;30.448;2022-10-16T01:41:59;9.25;;;4.60;;
49566;SDS011;35472;50.514;30.448;2022-10-16T01:44:29;8.07;;;5.38;;
49566;SDS011;35472;50.514;30.448;2022-10-16T01:46:58;10.45;;;4.47;;
49566;SDS011;35472;50.514;30.448;2022-10-16T01:49:27;10.23;;;4.60;;
49566;SDS011;35472;50.514;30.448;2022-10-16T01:51:58;9.20;;;4.50;;
49566;SDS011;35472;50.514;30.448;2022-10-16T01:54:26;8.18;;;4.95;;
49566;SDS011;35472;50.514;30.448;2022-10-16T01:56:54;7.03;;;4.80;;
49566;SDS011;35472;50.514;30.448;2022-10-16T01:59:21;8.40;;;5.35;;
49566;SDS011;35472;50.514;30.448;2022-10-16T02:01:51;8.73;;;4.93;;
49566;SDS011;35472;50.514;30.448;2022-10-16T02:04:24;6.50;;;4.40;;
49566;SDS011;35472;50.514;30.448;2022-10-16T02:06:54;7.13;;;4.28;;
49566;SDS011;35472;50.514;30.448;2022-10-16T02:09:20;5.90;;;4.00;;
49566;SDS011;35472;50.514;30.448;2022-10-16T02:11:46;10.73;;;4.45;;
49566;SDS011;35472;50.514;30.448;2022-10-16T02:14:14;8.63;;;5.30;;
49566;SDS011;35472;50.514;30.448;2022-10-16T02:16:46;7.65;;;4.90;;
49566;SDS011;35472;50.514;30.448;2022-10-16T02:19:12;7.35;;;5.40;;
49566;SDS011;35472;50.514;30.448;2022-10-16T02:21:57;9.45;;;5.57;;
49566;SDS011;35472;50.514;30.448;2022-10-16T02:27:53;7.90;;;5.15;;
49566;SDS011;35472;50.514;30.448;2022-10-16T02:30:35;9.85;;;5.68;;
49566;SDS011;35472;50.514;30.448;2022-10-16T02:33:05;7.13;;;5.07;;
49566;SDS011;35472;50.514;30.448;2022-10-16T02:35:34;8.43;;;6.28;;
49566;SDS011;35472;50.514;30.448;2022-10-16T02:38:01;8.30;;;5.15;;
49566;SDS011;35472;50.514;30.448;2022-10-16T02:40:28;10.93;;;6.75;;
49566;SDS011;35472;50.514;30.448;2022-10-16T02:42:54;9.25;;;6.28;;
49566;SDS011;35472;50.514;30.448;2022-10-16T02:45:20;11.60;;;5.72;;
49566;SDS011;35472;50.514;30.448;2022-10-16T02:47:46;11.63;;;5.03;;
49566;SDS011;35472;50.514;30.448;2022-10-16T02:50:15;8.90;;;5.65;;
49566;SDS011;35472;50.514;30.448;2022-10-16T02:52:41;8.88;;;4.95;;
49566;SDS011;35472;50.514;30.448;2022-10-16T02:55:06;12.55;;;6.15;;
49566;SDS011;35472;50.514;30.448;2022-10-16T02:57:32;9.68;;;5.35;;
49566;SDS011;35472;50.514;30.448;2022-10-16T02:59:57;8.18;;;5.55;;
49566;SDS011;35472;50.514;30.448;2022-10-16T03:02:23;7.63;;;5.03;;
49566;SDS011;35472;50.514;30.448;2022-10-16T03:04:48;11.15;;;5.80;;
49566;SDS011;35472;50.514;30.448;2022-10-16T03:07:14;7.47;;;4.88;;
49566;SDS011;35472;50.514;30.448;2022-10-16T03:09:39;12.75;;;5.63;;
49566;SDS011;35472;50.514;30.448;2022-10-16T03:12:05;9.32;;;5.50;;
49566;SDS011;35472;50.514;30.448;2022-10-16T03:14:31;8.48;;;5.05;;
49566;SDS011;35472;50.514;30.448;2022-10-16T03:16:56;9.10;;;5.82;;
49566;SDS011;35472;50.514;30.448;2022-10-16T03:19:22;11.80;;;7.40;;
49566;SDS011;35472;50.514;30.448;2022-10-16T03:21:47;14.32;;;7.40;;
49566;SDS011;35472;50.514;30.448;2022-10-16T03:24:12;9.00;;;5.30;;
49566;SDS011;35472;50.514;30.448;2022-10-16T03:26:38;7.80;;;5.20;;
49566;SDS011;35472;50.514;30.448;2022-10-16T03:29:03;9.40;;;5.90;;
49566;SDS011;35472;50.514;30.448;2022-10-16T03:31:29;11.73;;;6.13;;
49566;SDS011;35472;50.514;30.448;2022-10-16T03:33:55;13.00;;;6.03;;
49566;SDS011;35472;50.514;30.448;2022-10-16T03:36:21;12.25;;;7.15;;
49566;SDS011;35472;50.514;30.448;2022-10-16T03:38:46;11.95;;;6.10;;
49566;SDS011;35472;50.514;30.448;2022-10-16T03:41:12;10.95;;;6.53;;
49566;SDS011;35472;50.514;30.448;2022-10-16T03:43:37;11.55;;;7.15;;
49566;SDS011;35472;50.514;30.448;2022-10-16T03:46:02;12.13;;;6.68;;
49566;SDS011;35472;50.514;30.448;2022-10-16T03:48:28;13.55;;;8.10;;
49566;SDS011;35472;50.514;30.448;2022-10-16T03:50:54;9.68;;;7.00;;
49566;SDS011;35472;50.514;30.448;2022-10-16T03:53:19;10.80;;;6.55;;
49566;SDS011;35472;50.514;30.448;2022-10-16T03:55:45;11.30;;;7.07;;
49566;SDS011;35472;50.514;30.448;2022-10-16T03:58:10;13.20;;;7.35;;
49566;SDS011;35472;50.514;30.448;2022-10-16T04:00:40;11.13;;;7.28;;
49566;SDS011;35472;50.514;30.448;2022-10-16T04:03:10;14.25;;;7.70;;
49566;SDS011;35472;50.514;30.448;2022-10-16T04:05:37;10.32;;;6.32;;
49566;SDS011;35472;50.514;30.448;2022-10-16T04:08:02;8.85;;;5.97;;
49566;SDS011;35472;50.514;30.448;2022-10-16T04:10:28;14.45;;;7.45;;
49566;SDS011;35472;50.514;30.448;2022-10-16T04:12:54;10.68;;;6.78;;
49566;SDS011;35472;50.514;30.448;2022-10-16T04:15:23;11.52;;;6.55;;
49566;SDS011;35472;50.514;30.448;2022-10-16T04:17:50;11.20;;;6.95;;
49566;SDS011;35472;50.514;30.448;2022-10-16T04:20:16;12.10;;;6.60;;
49566;SDS011;35472;50.514;30.448;2022-10-16T04:22:41;10.38;;;7.65;;
49566;SDS011;35472;50.514;30.448;2022-10-16T04:25:06;15.70;;;8.30;;
49566;SDS011;35472;50.514;30.448;2022-10-16T04:27:32;11.75;;;6.75;;
49566;SDS011;35472;50.514;30.448;2022-10-16T04:29:58;13.60;;;7.65;;
49566;SDS011;35472;50.514;30.448;2022-10-16T04:32:24;10.70;;;6.93;;
49566;SDS011;35472;50.514;30.448;2022-10-16T04:34:50;12.88;;;6.47;;
49566;SDS011;35472;50.514;30.448;2022-10-16T04:37:15;11.95;;;7.00;;
49566;SDS011;35472;50.514;30.448;2022-10-16T04:39:40;10.13;;;6.75;;
49566;SDS011;35472;50.514;30.448;2022-10-16T04:42:06;13.52;;;7.55;;
49566;SDS011;35472;50.514;30.448;2022-10-16T04:44:31;10.85;;;7.30;;
49566;SDS011;35472;50.514;30.448;2022-10-16T04:46:56;10.63;;;7.07;;
49566;SDS011;35472;50.514;30.448;2022-10-16T04:49:22;10.20;;;6.65;;
49566;SDS011;35472;50.514;30.448;2022-10-16T04:51:47;13.77;;;8.55;;
49566;SDS011;35472;50.514;30.448;2022-10-16T04:54:13;11.27;;;6.97;;
49566;SDS011;35472;50.514;30.448;2022-10-16T04:56:38;12.15;;;7.32;;
49566;SDS011;35472;50.514;30.448;2022-10-16T04:59:15;9.40;;;7.68;;
49566;SDS011;35472;50.514;30.448;2022-10-16T05:01:41;12.30;;;8.00;;
49566;SDS011;35472;50.514;30.448;2022-10-16T05:04:07;13.00;;;8.13;;
49566;SDS011;35472;50.514;30.448;2022-10-16T05:06:33;10.85;;;7.25;;
49566;SDS011;35472;50.514;30.448;2022-10-16T05:08:58;11.75;;;6.85;;
49566;SDS011;35472;50.514;30.448;2022-10-16T05:11:24;14.75;;;7.75;;
49566;SDS011;35472;50.514;30.448;2022-10-16T05:13:49;9.57;;;6.75;;
49566;SDS011;35472;50.514;30.448;2022-10-16T05:16:15;10.43;;;7.78;;
49566;SDS011;35472;50.514;30.448;2022-10-16T05:18:40;10.85;;;7.55;;
49566;SDS011;35472;50.514;30.448;2022-10-16T05:21:06;12.85;;;7.57;;
49566;SDS011;35472;50.514;30.448;2022-10-16T05:23:32;11.30;;;7.45;;
49566;SDS011;35472;50.514;30.448;2022-10-16T05:25:58;12.10;;;7.70;;
49566;SDS011;35472;50.514;30.448;2022-10-16T05:28:27;16.02;;;7.65;;
49566;SDS011;35472;50.514;30.448;2022-10-16T05:30:54;10.77;;;8.05;;
49566;SDS011;35472;50.514;30.448;2022-10-16T05:33:20;12.68;;;8.38;;
49566;SDS011;35472;50.514;30.448;2022-10-16T05:35:46;14.40;;;7.75;;
49566;SDS011;35472;50.514;30.448;2022-10-16T05:38:12;15.65;;;7.97;;
49566;SDS011;35472;50.514;30.448;2022-10-16T05:40:38;16.52;;;10.45;;
49566;SDS011;35472;50.514;30.448;2022-10-16T05:43:03;14.25;;;8.00;;
49566;SDS011;35472;50.514;30.448;2022-10-16T05:45:29;13.43;;;8.13;;
49566;SDS011;35472;50.514;30.448;2022-10-16T05:47:54;13.82;;;7.72;;
49566;SDS011;35472;50.514;30.448;2022-10-16T05:50:19;10.73;;;7.88;;
49566;SDS011;35472;50.514;30.448;2022-10-16T05:52:45;18.58;;;10.93;;
49566;SDS011;35472;50.514;30.448;2022-10-16T05:55:10;12.20;;;8.52;;
49566;SDS011;35472;50.514;30.448;2022-10-16T05:57:35;13.75;;;7.57;;
49566;SDS011;35472;50.514;30.448;2022-10-16T06:00:01;10.65;;;7.35;;
49566;SDS011;35472;50.514;30.448;2022-10-16T06:02:37;8.35;;;7.07;;
49566;SDS011;35472;50.514;30.448;2022-10-16T06:05:03;8.65;;;6.35;;
49566;SDS011;35472;50.514;30.448;2022-10-16T06:07:33;12.85;;;8.35;;
49566;SDS011;35472;50.514;30.448;2022-10-16T06:09:59;9.57;;;7.10;;
49566;SDS011;35472;50.514;30.448;2022-10-16T06:12:24;10.20;;;7.43;;
49566;SDS011;35472;50.514;30.448;2022-10-16T06:14:51;17.17;;;8.82;;
49566;SDS011;35472;50.514;30.448;2022-10-16T06:17:17;9.70;;;7.45;;
49566;SDS011;35472;50.514;30.448;2022-10-16T06:19:42;10.43;;;7.30;;
49566;SDS011;35472;50.514;30.448;2022-10-16T06:22:07;12.07;;;7.45;;
49566;SDS011;35472;50.514;30.448;2022-10-16T06:24:33;12.45;;;8.23;;
49566;SDS011;35472;50.514;30.448;2022-10-16T06:26:58;11.40;;;7.70;;
49566;SDS011;35472;50.514;30.448;2022-10-16T06:29:23;9.40;;;7.40;;
49566;SDS011;35472;50.514;30.448;2022-10-16T06:31:49;11.40;;;8.65;;
49566;SDS011;35472;50.514;30.448;2022-10-16T06:34:15;14.90;;;7.97;;
49566;SDS011;35472;50.514;30.448;2022-10-16T06:36:41;14.88;;;8.13;;
49566;SDS011;35472;50.514;30.448;2022-10-16T06:39:06;17.73;;;7.97;;
49566;SDS011;35472;50.514;30.448;2022-10-16T06:41:32;11.38;;;7.90;;
49566;SDS011;35472;50.514;30.448;2022-10-16T06:44:09;7.97;;;6.65;;
49566;SDS011;35472;50.514;30.448;2022-10-16T06:46:35;13.23;;;6.70;;
49566;SDS011;35472;50.514;30.448;2022-10-16T06:49:00;9.70;;;6.40;;
49566;SDS011;35472;50.514;30.448;2022-10-16T06:51:26;13.15;;;7.75;;
49566;SDS011;35472;50.514;30.448;2022-10-16T06:53:52;11.57;;;6.60;;
49566;SDS011;35472;50.514;30.448;2022-10-16T06:56:20;10.77;;;7.68;;
49566;SDS011;35472;50.514;30.448;2022-10-16T06:58:48;9.70;;;5.72;;
49566;SDS011;35472;50.514;30.448;2022-10-16T07:01:15;8.88;;;6.00;;
49566;SDS011;35472;50.514;30.448;2022-10-16T07:03:42;5.38;;;4.82;;
49566;SDS011;35472;50.514;30.448;2022-10-16T07:06:09;11.30;;;5.70;;
49566;SDS011;35472;50.514;30.448;2022-10-16T07:08:37;6.38;;;5.65;;
49566;SDS011;35472;50.514;30.448;2022-10-16T07:11:05;7.63;;;5.30;;
49566;SDS011;35472;50.514;30.448;2022-10-16T07:13:33;6.18;;;4.15;;
49566;SDS011;35472;50.514;30.448;2022-10-16T07:16:03;6.45;;;4.97;;
49566;SDS011;35472;50.514;30.448;2022-10-16T07:18:36;5.68;;;4.43;;
49566;SDS011;35472;50.514;30.448;2022-10-16T07:21:05;6.43;;;5.20;;
49566;SDS011;35472;50.514;30.448;2022-10-16T07:23:34;8.32;;;4.45;;
49566;SDS011;35472;50.514;30.448;2022-10-16T07:26:00;7.88;;;5.00;;
49566;SDS011;35472;50.514;30.448;2022-10-16T07:28:25;12.05;;;5.45;;
49566;SDS011;35472;50.514;30.448;2022-10-16T07:30:51;6.78;;;4.93;;
49566;SDS011;35472;50.514;30.448;2022-10-16T07:33:16;7.10;;;4.35;;
49566;SDS011;35472;50.514;30.448;2022-10-16T07:35:49;8.65;;;5.05;;
49566;SDS011;35472;50.514;30.448;2022-10-16T07:38:17;8.70;;;4.85;;
49566;SDS011;35472;50.514;30.448;2022-10-16T07:40:43;7.45;;;4.72;;
49566;SDS011;35472;50.514;30.448;2022-10-16T07:43:09;8.52;;;4.72;;
49566;SDS011;35472;50.514;30.448;2022-10-16T07:45:34;7.57;;;5.72;;
49566;SDS011;35472;50.514;30.448;2022-10-16T07:48:00;9.00;;;5.10;;
49566;SDS011;35472;50.514;30.448;2022-10-16T07:50:25;6.97;;;4.78;;
49566;SDS011;35472;50.514;30.448;2022-10-16T07:52:51;8.98;;;4.45;;
49566;SDS011;35472;50.514;30.448;2022-10-16T07:55:17;8.95;;;5.43;;
49566;SDS011;35472;50.514;30.448;2022-10-16T07:57:42;7.18;;;5.13;;
49566;SDS011;35472;50.514;30.448;2022-10-16T08:00:07;6.45;;;4.32;;
49566;SDS011;35472;50.514;30.448;2022-10-16T08:02:38;6.45;;;4.15;;
49566;SDS011;35472;50.514;30.448;2022-10-16T08:05:05;9.35;;;4.55;;
49566;SDS011;35472;50.514;30.448;2022-10-16T08:07:31;6.68;;;3.97;;
49566;SDS011;35472;50.514;30.448;2022-10-16T08:09:56;9.75;;;5.05;;
49566;SDS011;35472;50.514;30.448;2022-10-16T08:12:26;7.47;;;4.82;;
49566;SDS011;35472;50.514;30.448;2022-10-16T08:14:51;5.90;;;4.38;;
49566;SDS011;35472;50.514;30.448;2022-10-16T08:17:16;8.55;;;4.40;;
49566;SDS011;35472;50.514;30.448;2022-10-16T08:19:45;5.90;;;3.95;;
49566;SDS011;35472;50.514;30.448;2022-10-16T08:22:12;6.05;;;3.75;;
49566;SDS011;35472;50.514;30.448;2022-10-16T08:24:38;13.57;;;4.85;;
49566;SDS011;35472;50.514;30.448;2022-10-16T08:27:03;6.00;;;4.43;;
49566;SDS011;35472;50.514;30.448;2022-10-16T08:29:29;7.97;;;4.38;;
49566;SDS011;35472;50.514;30.448;2022-10-16T08:31:54;4.60;;;4.03;;
49566;SDS011;35472;50.514;30.448;2022-10-16T08:34:20;5.32;;;3.72;;
49566;SDS011;35472;50.514;30.448;2022-10-16T08:36:45;6.90;;;3.83;;
49566;SDS011;35472;50.514;30.448;2022-10-16T08:39:10;5.97;;;3.72;;
49566;SDS011;35472;50.514;30.448;2022-10-16T08:47:17;3.75;;;3.45;;
49566;SDS011;35472;50.514;30.448;2022-10-16T08:49:57;7.07;;;4.38;;
49566;SDS011;35472;50.514;30.448;2022-10-16T08:52:29;6.20;;;2.92;;
49566;SDS011;35472;50.514;30.448;2022-10-16T08:54:56;4.78;;;3.65;;
49566;SDS011;35472;50.514;30.448;2022-10-16T08:57:22;4.07;;;2.72;;
49566;SDS011;35472;50.514;30.448;2022-10-16T08:59:51;5.32;;;3.70;;
49566;SDS011;35472;50.514;30.448;2022-10-16T09:02:32;5.28;;;3.35;;
49566;SDS011;35472;50.514;30.448;2022-10-16T09:07:39;5.20;;;4.13;;
49566;SDS011;35472;50.514;30.448;2022-10-16T09:18:29;4.82;;;3.58;;
49566;SDS011;35472;50.514;30.448;2022-10-16T09:21:14;5.30;;;3.83;;
49566;SDS011;35472;50.514;30.448;2022-10-16T09:23:43;4.43;;;2.92;;
49566;SDS011;35472;50.514;30.448;2022-10-16T09:26:13;5.93;;;2.50;;
49566;SDS011;35472;50.514;30.448;2022-10-16T09:28:40;3.85;;;3.20;;
49566;SDS011;35472;50.514;30.448;2022-10-16T09:31:08;4.70;;;2.72;;
49566;SDS011;35472;50.514;30.448;2022-10-16T09:33:43;4.50;;;3.70;;
49566;SDS011;35472;50.514;30.448;2022-10-16T09:36:14;4.18;;;2.47;;
49566;SDS011;35472;50.514;30.448;2022-10-16T09:38:40;3.53;;;3.20;;
49566;SDS011;35472;50.514;30.448;2022-10-16T09:46:21;4.53;;;3.33;;
49566;SDS011;35472;50.514;30.448;2022-10-16T09:48:50;6.28;;;2.50;;
49566;SDS011;35472;50.514;30.448;2022-10-16T09:51:23;3.58;;;2.60;;
49566;SDS011;35472;50.514;30.448;2022-10-16T09:54:01;8.30;;;3.22;;
49566;SDS011;35472;50.514;30.448;2022-10-16T09:56:38;3.03;;;2.72;;
49566;SDS011;35472;50.514;30.448;2022-10-16T10:01:42;23.67;;;3.58;;
49566;SDS011;35472;50.514;30.448;2022-10-16T10:04:11;3.93;;;2.90;;
49566;SDS011;35472;50.514;30.448;2022-10-16T10:06:40;5.05;;;4.13;;
49566;SDS011;35472;50.514;30.448;2022-10-16T10:09:25;4.55;;;3.55;;
49566;SDS011;35472;50.514;30.448;2022-10-16T10:11:55;4.03;;;2.58;;
49566;SDS011;35472;50.514;30.448;2022-10-16T10:14:23;4.57;;;2.78;;
49566;SDS011;35472;50.514;30.448;2022-10-16T10:16:52;4.45;;;3.92;;
49566;SDS011;35472;50.514;30.448;2022-10-16T10:19:27;6.35;;;3.15;;
49566;SDS011;35472;50.514;30.448;2022-10-16T10:21:53;3.70;;;3.28;;
49566;SDS011;35472;50.514;30.448;2022-10-16T10:24:19;3.08;;;2.80;;
49566;SDS011;35472;50.514;30.448;2022-10-16T10:26:47;6.82;;;3.88;;
49566;SDS011;35472;50.514;30.448;2022-10-16T10:29:31;5.88;;;3.63;;
49566;SDS011;35472;50.514;30.448;2022-10-16T10:37:31;6.32;;;3.60;;
49566;SDS011;35472;50.514;30.448;2022-10-16T10:40:22;7.00;;;3.33;;
49566;SDS011;35472;50.514;30.448;2022-10-16T10:43:00;4.70;;;3.08;;
49566;SDS011;35472;50.514;30.448;2022-10-16T10:45:43;7.57;;;3.97;;
49566;SDS011;35472;50.514;30.448;2022-10-16T10:51:08;7.22;;;3.35;;
49566;SDS011;35472;50.514;30.448;2022-10-16T10:54:02;4.68;;;3.22;;
49566;SDS011;35472;50.514;30.448;2022-10-16T11:02:26;8.75;;;3.75;;
49566;SDS011;35472;50.514;30.448;2022-10-16T11:05:02;3.88;;;3.58;;
49566;SDS011;35472;50.514;30.448;2022-10-16T11:07:39;6.50;;;3.75;;
49566;SDS011;35472;50.514;30.448;2022-10-16T11:10:18;5.85;;;3.08;;
49566;SDS011;35472;50.514;30.448;2022-10-16T11:13:10;6.30;;;3.35;;
49566;SDS011;35472;50.514;30.448;2022-10-16T11:15:45;8.45;;;3.10;;
49566;SDS011;35472;50.514;30.448;2022-10-16T11:18:17;7.15;;;2.88;;
49566;SDS011;35472;50.514;30.448;2022-10-16T11:20:49;3.70;;;2.45;;
49566;SDS011;35472;50.514;30.448;2022-10-16T11:23:40;5.45;;;3.00;;
49566;SDS011;35472;50.514;30.448;2022-10-16T11:26:16;5.65;;;2.78;;
49566;SDS011;35472;50.514;30.448;2022-10-16T11:28:45;6.07;;;2.83;;
49566;SDS011;35472;50.514;30.448;2022-10-16T11:31:19;3.22;;;2.85;;
49566;SDS011;35472;50.514;30.448;2022-10-16T11:34:09;6.68;;;3.08;;
49566;SDS011;35472;50.514;30.448;2022-10-16T11:39:33;4.95;;;2.47;;
49566;SDS011;35472;50.514;30.448;2022-10-16T11:42:03;5.55;;;3.00;;
49566;SDS011;35472;50.514;30.448;2022-10-16T11:44:55;3.28;;;2.05;;
49566;SDS011;35472;50.514;30.448;2022-10-16T11:47:48;5.43;;;3.08;;
49566;SDS011;35472;50.514;30.448;2022-10-16T11:50:40;4.03;;;2.75;;
49566;SDS011;35472;50.514;30.448;2022-10-16T11:55:45;6.15;;;2.53;;
49566;SDS011;35472;50.514;30.448;2022-10-16T12:00:46;2.70;;;2.28;;
49566;SDS011;35472;50.514;30.448;2022-10-16T12:03:21;3.97;;;2.60;;
49566;SDS011;35472;50.514;30.448;2022-10-16T12:08:51;5.18;;;2.25;;
49566;SDS011;35472;50.514;30.448;2022-10-16T12:14:03;4.90;;;3.40;;
49566;SDS011;35472;50.514;30.448;2022-10-16T12:16:38;5.47;;;2.70;;
49566;SDS011;35472;50.514;30.448;2022-10-16T12:19:16;10.55;;;4.95;;
49566;SDS011;35472;50.514;30.448;2022-10-16T12:21:43;8.13;;;3.13;;
49566;SDS011;35472;50.514;30.448;2022-10-16T12:27:02;5.45;;;2.55;;
49566;SDS011;35472;50.514;30.448;2022-10-16T12:32:20;5.57;;;2.70;;
49566;SDS011;35472;50.514;30.448;2022-10-16T12:35:02;8.93;;;2.28;;
49566;SDS011;35472;50.514;30.448;2022-10-16T12:37:31;3.35;;;2.17;;
49566;SDS011;35472;50.514;30.448;2022-10-16T12:39:58;4.55;;;2.60;;
49566;SDS011;35472;50.514;30.448;2022-10-16T12:42:35;3.13;;;2.80;;
49566;SDS011;35472;50.514;30.448;2022-10-16T12:45:01;6.85;;;2.92;;
49566;SDS011;35472;50.514;30.448;2022-10-16T12:47:50;5.13;;;2.72;;
49566;SDS011;35472;50.514;30.448;2022-10-16T12:50:33;5.85;;;2.90;;
49566;SDS011;35472;50.514;30.448;2022-10-16T12:53:18;3.67;;;2.45;;
49566;SDS011;35472;50.514;30.448;2022-10-16T12:58:43;8.23;;;3.20;;
49566;SDS011;35472;50.514;30.448;2022-10-16T13:07:32;5.47;;;3.53;;
49566;SDS011;35472;50.514;30.448;2022-10-16T13:10:26;6.20;;;2.65;;
49566;SDS011;35472;50.514;30.448;2022-10-16T13:18:56;9.02;;;3.83;;
49566;SDS011;35472;50.514;30.448;2022-10-16T13:24:22;6.22;;;3.40;;
49566;SDS011;35472;50.514;30.448;2022-10-16T13:29:29;5.32;;;3.28;;
49566;SDS011;35472;50.514;30.448;2022-10-16T13:31:57;6.38;;;3.30;;
49566;SDS011;35472;50.514;30.448;2022-10-16T13:34:23;7.82;;;3.00;;
49566;SDS011;35472;50.514;30.448;2022-10-16T13:36:50;7.88;;;4.10;;
49566;SDS011;35472;50.514;30.448;2022-10-16T13:39:25;7.57;;;3.72;;
49566;SDS011;35472;50.514;30.448;2022-10-16T13:42:04;6.05;;;4.05;;
49566;SDS011;35472;50.514;30.448;2022-10-16T13:44:36;4.40;;;2.90;;
49566;SDS011;35472;50.514;30.448;2022-10-16T13:47:41;7.13;;;3.15;;
49566;SDS011;35472;50.514;30.448;2022-10-16T13:50:06;5.78;;;3.90;;
49566;SDS011;35472;50.514;30.448;2022-10-16T13:52:37;12.98;;;4.22;;
49566;SDS011;35472;50.514;30.448;2022-10-16T13:55:03;5.63;;;3.38;;
49566;SDS011;35472;50.514;30.448;2022-10-16T13:57:35;10.45;;;4.30;;
49566;SDS011;35472;50.514;30.448;2022-10-16T14:00:00;4.35;;;3.05;;
49566;SDS011;35472;50.514;30.448;2022-10-16T14:02:33;8.77;;;3.88;;
49566;SDS011;35472;50.514;30.448;2022-10-16T14:05:03;5.55;;;4.00;;
49566;SDS011;35472;50.514;30.448;2022-10-16T14:07:34;5.82;;;3.38;;
49566;SDS011;35472;50.514;30.448;2022-10-16T14:10:01;10.48;;;3.83;;
49566;SDS011;35472;50.514;30.448;2022-10-16T14:12:32;2.97;;;2.50;;
49566;SDS011;35472;50.514;30.448;2022-10-16T14:14:59;7.18;;;3.78;;
49566;SDS011;35472;50.514;30.448;2022-10-16T14:17:31;4.78;;;2.97;;
49566;SDS011;35472;50.514;30.448;2022-10-16T14:20:00;10.43;;;2.97;;
49566;SDS011;35472;50.514;30.448;2022-10-16T14:22:36;7.55;;;3.85;;
49566;SDS011;35472;50.514;30.448;2022-10-16T14:28:02;10.25;;;3.45;;
49566;SDS011;35472;50.514;30.448;2022-10-16T14:30:27;8.32;;;3.60;;
49566;SDS011;35472;50.514;30.448;2022-10-16T14:33:04;11.77;;;4.15;;
49566;SDS011;35472;50.514;30.448;2022-10-16T14:38:03;5.88;;;2.88;;
49566;SDS011;35472;50.514;30.448;2022-10-16T14:40:30;9.70;;;4.03;;
49566;SDS011;35472;50.514;30.448;2022-10-16T14:42:57;11.15;;;4.57;;
49566;SDS011;35472;50.514;30.448;2022-10-16T14:45:26;14.10;;;4.32;;
49566;SDS011;35472;50.514;30.448;2022-10-16T14:47:54;7.50;;;4.55;;
49566;SDS011;35472;50.514;30.448;2022-10-16T14:50:22;9.65;;;3.85;;
49566;SDS011;35472;50.514;30.448;2022-10-16T14:52:48;9.10;;;4.93;;
49566;SDS011;35472;50.514;30.448;2022-10-16T14:55:13;9.77;;;4.78;;
49566;SDS011;35472;50.514;30.448;2022-10-16T14:57:39;6.90;;;4.00;;
49566;SDS011;35472;50.514;30.448;2022-10-16T15:00:13;4.25;;;3.50;;
49566;SDS011;35472;50.514;30.448;2022-10-16T15:02:42;7.93;;;3.75;;
49566;SDS011;35472;50.514;30.448;2022-10-16T15:07:39;10.70;;;4.22;;
49566;SDS011;35472;50.514;30.448;2022-10-16T15:10:05;7.20;;;3.42;;
49566;SDS011;35472;50.514;30.448;2022-10-16T15:12:30;15.52;;;4.88;;
49566;SDS011;35472;50.514;30.448;2022-10-16T15:14:56;9.98;;;5.20;;
49566;SDS011;35472;50.514;30.448;2022-10-16T15:17:21;8.40;;;5.15;;
49566;SDS011;35472;50.514;30.448;2022-10-16T15:19:47;7.40;;;5.07;;
49566;SDS011;35472;50.514;30.448;2022-10-16T15:22:12;7.05;;;4.55;;
49566;SDS011;35472;50.514;30.448;2022-10-16T15:24:37;5.47;;;4.07;;
49566;SDS011;35472;50.514;30.448;2022-10-16T15:27:02;22.67;;;5.30;;
49566;SDS011;35472;50.514;30.448;2022-10-16T15:29:28;6.85;;;4.40;;
49566;SDS011;35472;50.514;30.448;2022-10-16T15:31:53;7.53;;;4.80;;
49566;SDS011;35472;50.514;30.448;2022-10-16T15:34:19;9.82;;;5.57;;
49566;SDS011;35472;50.514;30.448;2022-10-16T15:36:44;12.43;;;5.68;;
49566;SDS011;35472;50.514;30.448;2022-10-16T15:39:12;9.20;;;5.35;;
49566;SDS011;35472;50.514;30.448;2022-10-16T15:41:39;14.25;;;7.43;;
49566;SDS011;35472;50.514;30.448;2022-10-16T15:44:04;7.75;;;5.20;;
49566;SDS011;35472;50.514;30.448;2022-10-16T15:46:30;7.70;;;5.20;;
49566;SDS011;35472;50.514;30.448;2022-10-16T15:48:56;9.80;;;5.43;;
49566;SDS011;35472;50.514;30.448;2022-10-16T15:51:23;13.23;;;6.72;;
49566;SDS011;35472;50.514;30.448;2022-10-16T15:53:49;12.07;;;6.43;;
49566;SDS011;35472;50.514;30.448;2022-10-16T15:56:16;11.13;;;6.25;;
49566;SDS011;35472;50.514;30.448;2022-10-16T15:58:41;14.45;;;5.78;;
49566;SDS011;35472;50.514;30.448;2022-10-16T16:01:07;11.90;;;7.20;;
49566;SDS011;35472;50.514;30.448;2022-10-16T16:03:35;8.07;;;5.85;;
49566;SDS011;35472;50.514;30.448;2022-10-16T16:06:05;14.20;;;8.65;;
49566;SDS011;35472;50.514;30.448;2022-10-16T16:08:35;9.97;;;5.90;;
49566;SDS011;35472;50.514;30.448;2022-10-16T16:11:02;8.77;;;5.82;;
49566;SDS011;35472;50.514;30.448;2022-10-16T16:13:38;12.35;;;6.30;;
49566;SDS011;35472;50.514;30.448;2022-10-16T16:16:09;9.60;;;6.43;;
49566;SDS011;35472;50.514;30.448;2022-10-16T16:18:36;12.93;;;6.95;;
49566;SDS011;35472;50.514;30.448;2022-10-16T16:21:02;11.95;;;7.75;;
49566;SDS011;35472;50.514;30.448;2022-10-16T16:23:28;11.05;;;7.65;;